Time;durP1;ratioP1;P1;durP2;ratioP2;P2;SDS_P1;SDS_P2;PMS_P1;PMS_P2;Temp;Humidity;BMP_temperature;BMP_pressure;BME280_temperature;BME280_humidity;BME280_pressure;Samples;Min_cycle;Max_cycle;Signal;HPM_P1;HPM_P2
2022/12/21 00:01:12;;;;;;;;;;;;;;;3.56;77.83;97934.31;5113591;28;19947;-67
2022/12/21 00:03:42;;;;;;;;;;;;;;;3.54;77.82;97936.47;5093729;28;19924;-70
2022/12/21 00:06:10;;;;;;;;;;;;;;;3.54;78.34;97941.84;5093274;28;20296;-73
2022/12/21 00:08:38;;;;;;;;;;;;;;;3.66;77.77;97939.72;5105909;27;19946;-72
2022/12/21 00:11:07;;;;;;;;;;;;;;;3.59;77.78;97930.31;5128812;27;19928;-72
2022/12/21 00:13:37;;;;;;;;;;;;;;;3.58;78.07;97931.38;5124531;27;20046;-68
2022/12/21 00:16:06;;;;;;;;;;;;;;;3.54;78.04;97923.03;5113931;27;20389;-68
2022/12/21 00:18:35;;;;;;;;;;;;;;;3.57;78.23;97922.50;5085259;28;20363;-67
2022/12/21 00:21:06;;;;;;;;;;;;;;;3.66;77.98;97915.53;5093615;28;19924;-67
2022/12/21 00:23:59;;;;;;;;;;;;;;;3.63;78.01;97913.38;5112653;28;19988;-68
2022/12/21 00:26:28;;;;;;;;;;;;;;;3.58;78.84;97910.69;5108636;28;19989;-68
2022/12/21 00:28:56;;;;;;;;;;;;;;;3.56;78.67;97912.00;5093076;28;19923;-67
2022/12/21 00:31:26;;;;;;;;;;;;;;;3.60;79.00;97905.03;5086011;28;20414;-68
2022/12/21 00:33:57;;;;;;;;;;;;;;;3.50;78.87;97905.03;5091796;28;20460;-66
2022/12/21 00:36:27;;;;;;;;;;;;;;;3.51;79.25;97909.31;5098524;28;19959;-70
2022/12/21 00:38:56;;;;;;;;;;;;;;;3.37;79.87;97899.09;5092493;28;19923;-69
2022/12/21 00:41:48;;;;;;;;;;;;;;;3.55;79.19;97900.47;5106681;28;19939;-68
2022/12/21 00:47:08;;;;;;;;;;;;;;;3.48;79.71;97899.13;5087446;28;19959;-68
2022/12/21 00:49:37;;;;;;;;;;;;;;;3.49;79.66;97889.97;5075769;28;19938;-68
2022/12/21 00:52:06;;;;;;;;;;;;;;;3.55;79.39;97888.91;5105756;28;20381;-68
2022/12/21 00:54:35;;;;;;;;;;;;;;;3.54;79.63;97888.13;5102132;28;19962;-68
2022/12/21 00:57:03;;;;;;;;;;;;;;;3.50;79.68;97884.34;5105923;28;19935;-69
2022/12/21 00:59:32;;;;;;;;;;;;;;;3.45;79.95;97889.69;5084133;28;19963;-69
2022/12/21 01:02:01;;;;;;;;;;;;;;;3.47;80.43;97892.94;5073597;28;19967;-69
2022/12/21 01:04:29;;;;;;;;;;;;;;;3.55;80.40;97899.66;5085311;28;20022;-68
2022/12/21 01:06:58;;;;;;;;;;;;;;;3.55;79.90;97900.47;5086977;28;20273;-67
2022/12/21 01:09:28;;;;;;;;;;;;;;;3.51;80.06;97899.38;5094258;28;19924;-68
2022/12/21 01:11:57;;;;;;;;;;;;;;;3.42;80.96;97892.94;5086962;28;19924;-68
2022/12/21 01:17:23;;;;;;;;;;;;;;;3.45;81.40;97894.25;5077392;28;19942;-68
2022/12/21 01:19:52;;;;;;;;;;;;;;;3.42;80.99;97896.41;5080926;28;19928;-68
2022/12/21 01:22:20;;;;;;;;;;;;;;;3.40;81.55;97895.88;5080056;28;20344;-68
2022/12/21 01:24:50;;;;;;;;;;;;;;;3.44;81.42;97908.78;5091541;28;19928;-67
2022/12/21 01:27:20;;;;;;;;;;;;;;;3.47;81.34;97914.44;5110362;27;19971;-68
2022/12/21 01:29:50;;;;;;;;;;;;;;;3.49;81.15;97914.97;5099863;28;19935;-69
2022/12/21 01:32:20;;;;;;;;;;;;;;;3.41;81.91;97910.13;5081030;28;20065;-68
2022/12/21 01:34:48;;;;;;;;;;;;;;;3.41;81.52;97904.75;5098227;28;19946;-69
2022/12/21 01:37:16;;;;;;;;;;;;;;;3.45;81.44;97905.81;5084773;28;20272;-68
2022/12/21 01:39:45;;;;;;;;;;;;;;;3.47;81.10;97903.69;5087421;28;19931;-68
2022/12/21 01:42:14;;;;;;;;;;;;;;;3.40;81.76;97901.22;5104013;28;19931;-68
2022/12/21 01:44:52;;;;;;;;;;;;;;;3.37;81.71;97925.94;5084818;28;19928;-67
2022/12/21 01:47:27;;;;;;;;;;;;;;;3.42;81.22;97927.84;5084481;28;20015;-68
2022/12/21 01:49:57;;;;;;;;;;;;;;;3.39;81.69;97917.63;5084453;28;19984;-67
2022/12/21 01:52:25;;;;;;;;;;;;;;;3.45;81.74;97916.56;5083188;28;20073;-68
2022/12/21 01:54:54;;;;;;;;;;;;;;;3.45;81.54;97905.81;5086770;28;19932;-68
2022/12/21 01:57:50;;;;;;;;;;;;;;;3.47;81.75;97908.25;5091474;28;19924;-67
2022/12/21 02:00:20;;;;;;;;;;;;;;;3.47;81.67;97903.69;5083036;28;19924;-68
2022/12/21 02:02:53;;;;;;;;;;;;;;;3.43;81.82;97902.59;5109147;28;20005;-68
2022/12/21 02:05:24;;;;;;;;;;;;;;;3.40;81.79;97897.75;5083281;28;19954;-69
2022/12/21 02:07:52;;;;;;;;;;;;;;;3.45;81.94;97900.44;5102571;28;19927;-68
2022/12/21 02:10:45;;;;;;;;;;;;;;;3.49;81.82;97906.09;5083666;28;19932;-68
2022/12/21 02:13:14;;;;;;;;;;;;;;;3.50;81.90;97896.97;5108089;28;19924;-68
2022/12/21 02:15:53;;;;;;;;;;;;;;;3.46;82.05;97896.69;5110839;28;19935;-68
2022/12/21 02:18:24;;;;;;;;;;;;;;;3.45;82.26;97895.06;5091743;28;19973;-68
2022/12/21 02:21:07;;;;;;;;;;;;;;;3.45;82.00;97897.75;5109017;28;20380;-68
2022/12/21 02:23:43;;;;;;;;;;;;;;;3.37;82.79;97892.91;5088119;28;20048;-68
2022/12/21 02:26:13;;;;;;;;;;;;;;;3.43;82.72;97897.22;5106024;28;20046;-68
2022/12/21 02:29:06;;;;;;;;;;;;;;;3.45;82.64;97895.06;5090689;28;19934;-69
2022/12/21 02:31:37;;;;;;;;;;;;;;;3.54;82.40;97888.13;5077154;28;19924;-67
2022/12/21 02:34:09;;;;;;;;;;;;;;;3.51;82.39;97888.63;5083568;28;19923;-68
2022/12/21 02:39:33;;;;;;;;;;;;;;;3.50;82.54;97894.28;5086426;28;19935;-70
2022/12/21 02:42:02;;;;;;;;;;;;;;;3.45;83.21;97888.91;5089717;28;19938;-70
2022/12/21 02:44:34;;;;;;;;;;;;;;;3.44;83.36;97882.72;5088857;28;20339;-68
2022/12/21 02:47:06;;;;;;;;;;;;;;;3.50;83.41;97897.78;5100288;28;19924;-69
2022/12/21 02:49:37;;;;;;;;;;;;;;;3.50;82.89;97884.34;5095010;28;20023;-69
2022/12/21 02:52:05;;;;;;;;;;;;;;;3.62;83.32;97884.91;5089834;28;19976;-68
2022/12/21 02:54:34;;;;;;;;;;;;;;;3.65;82.64;97880.88;5092399;28;19935;-69
2022/12/21 02:57:02;;;;;;;;;;;;;;;3.54;83.20;97876.56;5091850;28;19923;-69
2022/12/21 02:59:31;;;;;;;;;;;;;;;3.49;83.66;97868.50;5094299;28;19931;-68
2022/12/21 03:02:10;;;;;;;;;;;;;;;3.47;84.26;97868.78;5092406;28;19973;-69
2022/12/21 03:04:43;;;;;;;;;;;;;;;3.48;84.16;97867.69;5096482;28;20388;-69
2022/12/21 03:07:17;;;;;;;;;;;;;;;3.63;83.88;97858.84;5082707;28;19925;-68
2022/12/21 03:09:48;;;;;;;;;;;;;;;3.63;84.65;97848.91;5083284;28;19927;-68
2022/12/21 03:12:19;;;;;;;;;;;;;;;3.65;83.81;97838.69;5093055;28;20303;-68
2022/12/21 03:14:51;;;;;;;;;;;;;;;3.58;83.80;97840.03;5100162;28;19928;-70
2022/12/21 03:17:27;;;;;;;;;;;;;;;3.52;84.51;97835.75;5095801;27;20361;-69
2022/12/21 03:19:56;;;;;;;;;;;;;;;3.54;84.26;97844.34;5093715;28;20376;-68
2022/12/21 03:22:26;;;;;;;;;;;;;;;3.56;84.39;97848.34;5095546;28;19924;-68
2022/12/21 03:24:56;;;;;;;;;;;;;;;3.57;84.54;97839.25;5100382;28;19947;-68
2022/12/21 03:27:25;;;;;;;;;;;;;;;3.55;84.60;97845.94;5114163;28;19924;-69
2022/12/21 03:29:54;;;;;;;;;;;;;;;3.58;85.10;97845.41;5109497;28;19924;-69
2022/12/21 03:32:25;;;;;;;;;;;;;;;3.61;84.60;97844.88;5095174;28;19924;-69
2022/12/21 03:34:56;;;;;;;;;;;;;;;3.61;84.72;97840.28;5101795;28;19984;-69
2022/12/21 03:37:25;;;;;;;;;;;;;;;3.67;84.53;97838.41;5109618;28;19923;-69
2022/12/21 03:39:56;;;;;;;;;;;;;;;3.63;84.38;97827.41;5107449;28;20373;-68
2022/12/21 03:42:32;;;;;;;;;;;;;;;3.65;85.13;97829.84;5113011;28;19930;-68
2022/12/21 03:45:02;;;;;;;;;;;;;;;3.68;84.89;97830.09;5113002;28;19976;-69
2022/12/21 03:47:33;;;;;;;;;;;;;;;3.69;85.13;97825.53;5113294;28;19924;-69
2022/12/21 03:50:27;;;;;;;;;;;;;;;3.72;84.93;97829.56;5113992;27;19930;-69
2022/12/21 03:52:56;;;;;;;;;;;;;;;3.69;85.44;97820.16;5106785;28;19956;-68
2022/12/21 03:55:25;;;;;;;;;;;;;;;3.73;85.14;97820.41;5082944;28;19923;-68
2022/12/21 03:57:53;;;;;;;;;;;;;;;3.77;85.36;97816.13;5098451;28;19924;-68
2022/12/21 04:00:22;;;;;;;;;;;;;;;3.79;84.91;97814.00;5105166;28;19931;-69
2022/12/21 04:02:53;;;;;;;;;;;;;;;3.79;84.89;97825.53;5100527;28;20572;-69
2022/12/21 04:05:22;;;;;;;;;;;;;;;3.81;85.02;97818.00;5115152;27;19925;-68
2022/12/21 04:07:50;;;;;;;;;;;;;;;3.81;84.84;97811.81;5095043;28;20379;-69
2022/12/21 04:10:19;;;;;;;;;;;;;;;3.83;85.62;97810.47;5111047;28;19924;-69
2022/12/21 04:12:46;;;;;;;;;;;;;;;3.89;85.37;97803.22;5107664;28;19939;-68
2022/12/21 04:15:16;;;;;;;;;;;;;;;3.89;85.38;97801.34;5098726;28;20296;-68
2022/12/21 04:17:46;;;;;;;;;;;;;;;3.90;85.75;97799.47;5103337;27;19931;-67
2022/12/21 04:20:15;;;;;;;;;;;;;;;3.94;86.04;97797.81;5086549;28;20019;-68
2022/12/21 04:28:17;;;;;;;;;;;;;;;4.01;85.93;97811.81;5080921;28;20030;-68
2022/12/21 04:31:06;;;;;;;;;;;;;;;4.04;85.92;97810.44;5104345;28;19962;-68
2022/12/21 04:33:34;;;;;;;;;;;;;;;4.05;86.04;97806.69;5093663;28;20006;-68
2022/12/21 04:38:51;;;;;;;;;;;;;;;4.10;86.11;97807.50;5101619;28;20292;-68
2022/12/21 04:41:20;;;;;;;;;;;;;;;4.13;86.48;97806.94;5111917;28;20026;-69
2022/12/21 04:43:48;;;;;;;;;;;;;;;4.15;86.35;97802.09;5103178;28;19923;-68
2022/12/21 04:46:17;;;;;;;;;;;;;;;4.17;86.21;97799.94;5084093;28;19924;-69
2022/12/21 04:48:46;;;;;;;;;;;;;;;4.16;86.12;97809.09;5097405;28;19930;-68
2022/12/21 04:51:19;;;;;;;;;;;;;;;4.17;86.14;97804.53;5101650;28;19931;-68
2022/12/21 04:53:47;;;;;;;;;;;;;;;4.15;86.36;97801.28;5080614;28;20327;-68
2022/12/21 04:56:15;;;;;;;;;;;;;;;4.15;87.14;97802.09;5096665;27;19931;-68
2022/12/21 04:58:44;;;;;;;;;;;;;;;4.21;87.03;97794.84;5076587;28;19924;-68
2022/12/21 05:01:13;;;;;;;;;;;;;;;4.25;86.81;97792.41;5075509;28;19977;-67
2022/12/21 05:03:41;;;;;;;;;;;;;;;4.23;86.94;97791.88;5097334;28;19931;-68
2022/12/21 05:06:10;;;;;;;;;;;;;;;4.24;87.16;97796.16;5101657;28;19928;-69
2022/12/21 05:08:40;;;;;;;;;;;;;;;4.27;87.63;97776.81;5082283;28;19931;-68
2022/12/21 05:11:09;;;;;;;;;;;;;;;4.29;87.46;97774.66;5110615;28;19931;-68
2022/12/21 05:13:37;;;;;;;;;;;;;;;4.30;87.63;97789.69;5106087;28;19924;-68
2022/12/21 05:16:05;;;;;;;;;;;;;;;4.32;87.44;97780.28;5086358;28;19923;-68
2022/12/21 05:18:35;;;;;;;;;;;;;;;4.32;88.26;97780.28;5104993;28;20391;-68
2022/12/21 05:21:03;;;;;;;;;;;;;;;4.42;87.93;97784.81;5085458;28;19924;-68
2022/12/21 05:23:56;;;;;;;;;;;;;;;4.40;88.31;97781.59;5098554;28;19928;-68
2022/12/21 05:26:26;;;;;;;;;;;;;;;4.43;88.00;97781.06;5113238;27;19924;-68
2022/12/21 05:28:55;;;;;;;;;;;;;;;4.45;87.70;97784.28;5096661;27;20329;-65
2022/12/21 05:31:23;;;;;;;;;;;;;;;4.49;88.42;97790.72;5099486;28;19924;-68
2022/12/21 05:33:52;;;;;;;;;;;;;;;4.50;88.21;97783.44;5101479;28;19934;-68
2022/12/21 05:36:20;;;;;;;;;;;;;;;4.51;87.85;97793.94;5105985;28;20014;-68
2022/12/21 05:38:50;;;;;;;;;;;;;;;4.52;87.65;97795.53;5100143;28;19928;-67
2022/12/21 05:41:18;;;;;;;;;;;;;;;4.53;87.47;97791.78;5100451;28;20443;-69
2022/12/21 05:43:48;;;;;;;;;;;;;;;4.60;87.57;97794.19;5088856;28;19931;-68
2022/12/21 05:46:16;;;;;;;;;;;;;;;4.56;87.61;97795.81;5082147;28;20059;-69
2022/12/21 05:48:54;;;;;;;;;;;;;;;4.58;87.46;97796.31;5099112;28;19924;-69
2022/12/21 05:51:23;;;;;;;;;;;;;;;4.64;87.80;97792.56;5103597;28;19924;-70
2022/12/21 05:53:51;;;;;;;;;;;;;;;4.64;87.85;97792.56;5093817;28;19928;-68
2022/12/21 05:56:19;;;;;;;;;;;;;;;4.71;87.41;97799.25;5103017;28;19931;-67
2022/12/21 05:58:49;;;;;;;;;;;;;;;4.65;87.64;97800.34;5087765;28;19924;-67
2022/12/21 06:01:18;;;;;;;;;;;;;;;4.65;87.64;97805.72;5095259;28;19931;-69
2022/12/21 06:03:46;;;;;;;;;;;;;;;4.69;88.05;97806.00;5080354;28;19924;-69
2022/12/21 06:06:15;;;;;;;;;;;;;;;4.68;88.07;97809.75;5088387;28;19928;-69
2022/12/21 06:08:43;;;;;;;;;;;;;;;4.72;87.76;97806.22;5093924;28;19923;-69
2022/12/21 06:11:12;;;;;;;;;;;;;;;4.75;88.05;97798.69;5095346;28;19969;-68
2022/12/21 06:13:40;;;;;;;;;;;;;;;4.70;87.90;97799.53;5095215;28;19939;-69
2022/12/21 06:16:11;;;;;;;;;;;;;;;4.76;88.02;97803.00;5088921;28;20356;-68
2022/12/21 06:19:03;;;;;;;;;;;;;;;4.76;88.13;97798.41;5071636;28;19939;-69
2022/12/21 06:21:31;;;;;;;;;;;;;;;4.82;88.43;97797.31;5085711;28;19975;-69
2022/12/21 06:24:00;;;;;;;;;;;;;;;4.84;89.11;97791.63;5073097;28;20402;-69
2022/12/21 06:26:28;;;;;;;;;;;;;;;4.86;88.70;97798.38;5093839;28;19924;-69
2022/12/21 06:28:56;;;;;;;;;;;;;;;4.89;89.10;97789.72;5103157;28;19924;-69
2022/12/21 06:31:25;;;;;;;;;;;;;;;4.94;89.26;97795.09;5082221;28;19977;-68
2022/12/21 06:33:55;;;;;;;;;;;;;;;5.09;89.21;97793.41;5081698;28;20045;-67
2022/12/21 06:36:25;;;;;;;;;;;;;;;5.04;89.73;97791.53;5091161;28;20284;-71
2022/12/21 06:38:56;;;;;;;;;;;;;;;5.02;89.57;97799.09;5094671;28;19962;-70
2022/12/21 06:41:50;;;;;;;;;;;;;;;5.08;89.80;97789.91;5100041;28;20319;-70
2022/12/21 06:44:19;;;;;;;;;;;;;;;5.00;89.50;97795.84;5096346;28;19936;-69
2022/12/21 06:47:13;;;;;;;;;;;;;;;5.19;90.32;97793.34;5073599;28;19935;-68
2022/12/21 06:50:30;;;;;;;;;;;;;;;5.11;89.55;97796.59;5098587;28;19924;-69
2022/12/21 06:52:58;;;;;;;;;;;;;;;5.11;89.84;97797.41;5098503;28;19935;-69
2022/12/21 06:55:27;;;;;;;;;;;;;;;5.18;89.61;97792.53;5100480;28;19936;-68
2022/12/21 06:57:55;;;;;;;;;;;;;;;5.18;89.74;97800.63;5104030;28;19923;-69
2022/12/21 07:00:23;;;;;;;;;;;;;;;5.21;89.87;97796.53;5083588;28;20328;-68
2022/12/21 07:02:52;;;;;;;;;;;;;;;5.19;89.83;97799.53;5089499;27;19968;-69
2022/12/21 07:05:21;;;;;;;;;;;;;;;5.24;89.89;97798.69;5106920;27;19935;-69
2022/12/21 07:07:49;;;;;;;;;;;;;;;5.25;89.41;97795.72;5104368;27;20277;-67
2022/12/21 07:10:17;;;;;;;;;;;;;;;5.21;89.41;97808.13;5103764;28;19946;-68
2022/12/21 07:12:46;;;;;;;;;;;;;;;5.26;89.63;97808.09;5079734;28;19958;-67
2022/12/21 07:15:18;;;;;;;;;;;;;;;5.29;89.58;97805.94;5094576;28;20376;-68
2022/12/21 07:18:12;;;;;;;;;;;;;;;5.34;90.11;97811.28;5099192;27;20148;-69
2022/12/21 07:20:41;;;;;;;;;;;;;;;5.29;89.63;97812.13;5089564;28;20449;-69
2022/12/21 07:23:09;;;;;;;;;;;;;;;5.41;89.86;97814.47;5103854;27;19928;-69
2022/12/21 07:25:38;;;;;;;;;;;;;;;5.37;89.31;97810.72;5103148;28;20419;-68
2022/12/21 07:28:07;;;;;;;;;;;;;;;5.32;89.43;97818.84;5116962;27;19923;-69
2022/12/21 07:30:37;;;;;;;;;;;;;;;5.35;89.76;97818.28;5112555;27;19935;-69
2022/12/21 07:33:05;;;;;;;;;;;;;;;5.44;88.86;97825.50;5103094;28;19928;-69
2022/12/21 07:35:35;;;;;;;;;;;;;;;5.43;89.37;97821.19;5114334;27;19959;-69
2022/12/21 07:38:03;;;;;;;;;;;;;;;5.38;89.46;97823.09;5113257;28;19924;-66
2022/12/21 07:40:32;;;;;;;;;;;;;;;5.44;89.14;97822.00;5104596;28;19939;-68
2022/12/21 07:43:00;;;;;;;;;;;;;;;5.43;89.99;97820.38;5087250;28;20006;-66
2022/12/21 07:45:44;;;;;;;;;;;;;;;5.48;89.65;97821.13;5092157;28;19924;-68
2022/12/21 07:48:15;;;;;;;;;;;;;;;5.44;89.29;97822.00;5097419;28;19980;-69
2022/12/21 07:50:47;;;;;;;;;;;;;;;5.44;89.38;97816.63;5106084;27;19924;-69
2022/12/21 07:53:15;;;;;;;;;;;;;;;5.50;88.88;97820.88;5103544;28;19969;-69
2022/12/21 07:55:44;;;;;;;;;;;;;;;5.48;88.88;97823.03;5099328;27;20365;-68
2022/12/21 07:58:12;;;;;;;;;;;;;;;5.46;89.26;97830.59;5088684;28;20296;-68
2022/12/21 08:04:00;;;;;;;;;;;;;;;5.53;89.05;97829.19;5108350;27;19924;-69
2022/12/21 08:06:30;;;;;;;;;;;;;;;5.57;89.71;97826.75;5092020;27;20399;-69
2022/12/21 08:08:58;;;;;;;;;;;;;;;5.53;89.15;97821.09;5087402;28;20376;-69
2022/12/21 08:11:28;;;;;;;;;;;;;;;5.56;89.41;97824.34;5100590;28;19927;-68
2022/12/21 08:13:57;;;;;;;;;;;;;;;5.56;88.87;97835.94;5092875;28;20300;-69
2022/12/21 08:16:26;;;;;;;;;;;;;;;5.57;89.10;97834.03;5101290;28;19930;-69
2022/12/21 08:18:55;;;;;;;;;;;;;;;5.55;89.27;97828.94;5101341;27;19935;-67
2022/12/21 08:21:24;;;;;;;;;;;;;;;5.56;88.84;97835.94;5109705;28;19924;-69
2022/12/21 08:23:54;;;;;;;;;;;;;;;5.59;88.48;97835.34;5098846;28;19924;-67
2022/12/21 08:26:23;;;;;;;;;;;;;;;5.56;88.92;97827.84;5110683;28;19934;-67
2022/12/21 08:28:51;;;;;;;;;;;;;;;5.59;89.04;97835.34;5107290;28;19931;-67
2022/12/21 08:31:26;;;;;;;;;;;;;;;5.56;88.70;97835.94;5079460;28;20022;-68
2022/12/21 08:33:55;;;;;;;;;;;;;;;5.59;88.82;97835.34;5089904;28;20014;-66
2022/12/21 08:36:24;;;;;;;;;;;;;;;5.58;88.52;97832.94;5107060;28;20311;-67
2022/12/21 08:38:56;;;;;;;;;;;;;;;5.59;88.73;97829.97;5081943;28;19940;-65
2022/12/21 08:41:41;;;;;;;;;;;;;;;5.62;88.42;97834.81;5098288;28;20019;-66
2022/12/21 08:44:10;;;;;;;;;;;;;;;5.60;88.91;97830.78;5076395;27;19924;-66
2022/12/21 08:46:38;;;;;;;;;;;;;;;5.63;88.29;97833.72;5089254;28;19945;-67
2022/12/21 08:49:06;;;;;;;;;;;;;;;5.62;88.66;97834.81;5118768;27;19928;-67
2022/12/21 08:51:37;;;;;;;;;;;;;;;5.64;88.42;97842.59;5092032;28;19932;-68
2022/12/21 08:54:09;;;;;;;;;;;;;;;5.64;88.71;97848.78;5109296;28;19982;-67
2022/12/21 08:56:39;;;;;;;;;;;;;;;5.70;88.59;97847.69;5093832;28;19927;-68
2022/12/21 08:59:08;;;;;;;;;;;;;;;5.64;88.44;97838.00;5097722;28;19923;-67
2022/12/21 09:01:36;;;;;;;;;;;;;;;5.74;88.12;97837.94;5089672;28;19931;-66
2022/12/21 09:04:05;;;;;;;;;;;;;;;5.76;88.11;97843.06;5097911;28;19939;-67
2022/12/21 09:06:33;;;;;;;;;;;;;;;5.72;88.86;97847.41;5084068;28;19928;-67
2022/12/21 09:09:01;;;;;;;;;;;;;;;5.75;88.33;97842.25;5108862;28;19927;-69
2022/12/21 09:11:32;;;;;;;;;;;;;;;5.76;88.79;97840.38;5105995;28;20093;-67
2022/12/21 09:14:10;;;;;;;;;;;;;;;5.81;88.17;97847.63;5104616;28;19928;-67
2022/12/21 09:16:39;;;;;;;;;;;;;;;5.78;88.32;97844.38;5077412;28;19966;-67
2022/12/21 09:19:07;;;;;;;;;;;;;;;5.88;88.00;97840.81;5092705;28;19924;-68
2022/12/21 09:21:36;;;;;;;;;;;;;;;5.88;88.02;97840.00;5103662;28;19951;-67
2022/12/21 09:24:04;;;;;;;;;;;;;;;5.88;88.29;97840.00;5094427;28;19928;-67
2022/12/21 09:26:35;;;;;;;;;;;;;;;5.91;88.22;97842.97;5076865;28;19967;-69
2022/12/21 09:29:03;;;;;;;;;;;;;;;5.87;88.60;97846.50;5053108;28;19925;-67
2022/12/21 09:31:32;;;;;;;;;;;;;;;5.91;88.62;97836.72;5063203;28;19960;-67
2022/12/21 09:34:01;;;;;;;;;;;;;;;5.92;88.87;97843.78;5053910;28;19947;-68
2022/12/21 09:36:32;;;;;;;;;;;;;;;5.94;89.26;97833.50;5050352;28;19924;-66
2022/12/21 09:39:29;;;;;;;;;;;;;;;6.01;88.76;97836.66;5066211;28;20038;-67
2022/12/21 09:42:03;;;;;;;;;;;;;;;5.99;89.15;97830.75;5067499;28;19924;-67
2022/12/21 09:44:45;;;;;;;;;;;;;;;5.99;88.68;97828.88;5053891;28;20496;-67
2022/12/21 09:50:32;;;;;;;;;;;;;;;6.06;88.78;97828.53;5060218;28;20070;-67
2022/12/21 09:53:02;;;;;;;;;;;;;;;6.01;89.16;97832.06;5052835;28;19937;-67
2022/12/21 09:55:32;;;;;;;;;;;;;;;6.01;89.77;97832.06;5059788;28;19925;-66
2022/12/21 09:58:03;;;;;;;;;;;;;;;6.04;89.64;97831.53;5062191;28;19929;-66
2022/12/21 10:00:34;;;;;;;;;;;;;;;6.08;89.62;97826.38;5067170;28;19929;-65
2022/12/21 10:03:09;;;;;;;;;;;;;;;6.10;89.32;97823.38;5065762;28;19924;-66
2022/12/21 10:05:42;;;;;;;;;;;;;;;6.13;89.23;97823.63;5070738;28;19925;-66
2022/12/21 10:08:35;;;;;;;;;;;;;;;6.12;89.81;97827.41;5055491;28;19929;-67
2022/12/21 10:11:06;;;;;;;;;;;;;;;6.11;89.63;97822.28;5066815;28;20014;-67
2022/12/21 10:13:38;;;;;;;;;;;;;;;6.13;89.71;97823.63;5060570;28;19967;-67
2022/12/21 10:16:12;;;;;;;;;;;;;;;6.15;89.47;97816.03;5058178;28;19932;-66
2022/12/21 10:18:42;;;;;;;;;;;;;;;6.13;90.10;97815.53;5069448;28;20011;-68
2022/12/21 10:21:12;;;;;;;;;;;;;;;6.11;90.61;97820.41;5058945;28;19931;-67
2022/12/21 10:23:45;;;;;;;;;;;;;;;6.16;90.40;97816.84;5071347;28;19924;-67
2022/12/21 10:26:15;;;;;;;;;;;;;;;6.20;90.44;97824.09;5055344;28;20282;-67
2022/12/21 10:28:46;;;;;;;;;;;;;;;6.22;90.46;97815.72;5061989;28;19928;-67
2022/12/21 10:31:16;;;;;;;;;;;;;;;6.27;90.42;97812.97;5059701;28;19928;-69
2022/12/21 10:33:46;;;;;;;;;;;;;;;6.24;90.31;97814.34;5051149;28;20282;-67
2022/12/21 10:36:40;;;;;;;;;;;;;;;6.32;90.29;97807.50;5071403;28;19935;-68
2022/12/21 10:39:32;;;;;;;;;;;;;;;6.33;90.33;97808.31;5075609;28;20118;-68
2022/12/21 10:42:02;;;;;;;;;;;;;;;6.33;89.99;97798.31;5072963;28;20297;-67
2022/12/21 10:44:39;;;;;;;;;;;;;;;6.32;90.07;97799.41;5062056;28;20377;-67
2022/12/21 10:47:11;;;;;;;;;;;;;;;6.35;90.20;97798.06;5072010;28;19924;-67
2022/12/21 10:50:07;;;;;;;;;;;;;;;6.40;90.29;97803.41;5059655;28;19935;-67
2022/12/21 10:52:37;;;;;;;;;;;;;;;6.40;89.95;97801.50;5066103;28;19925;-67
2022/12/21 10:55:07;;;;;;;;;;;;;;;6.48;89.70;97797.34;5069103;28;19932;-67
2022/12/21 10:57:36;;;;;;;;;;;;;;;6.49;89.92;97801.66;5065681;28;19932;-67
2022/12/21 11:00:20;;;;;;;;;;;;;;;6.53;89.81;97798.09;5064150;28;19928;-66
2022/12/21 11:02:49;;;;;;;;;;;;;;;6.56;89.77;97804.84;5072123;28;19993;-67
2022/12/21 11:05:26;;;;;;;;;;;;;;;6.51;89.55;97796.78;5066850;28;19932;-67
2022/12/21 11:07:54;;;;;;;;;;;;;;;6.56;89.50;97794.03;5070502;28;19924;-66
2022/12/21 11:10:27;;;;;;;;;;;;;;;6.55;90.49;97795.09;5062824;28;19924;-66
2022/12/21 11:13:17;;;;;;;;;;;;;;;6.57;89.87;97790.25;5062137;28;20033;-67
2022/12/21 11:16:01;;;;;;;;;;;;;;;6.62;90.27;97797.47;5061005;28;19990;-67
2022/12/21 11:18:36;;;;;;;;;;;;;;;6.62;90.22;97792.88;5073779;28;19924;-68
2022/12/21 11:21:05;;;;;;;;;;;;;;;6.62;90.38;97792.09;5064806;28;19973;-68
2022/12/21 11:26:27;;;;;;;;;;;;;;;6.65;90.75;97786.09;5071713;28;20413;-69
2022/12/21 11:29:01;;;;;;;;;;;;;;;6.66;91.30;97790.38;5064394;28;20406;-68
2022/12/21 11:31:31;;;;;;;;;;;;;;;6.68;90.92;97786.31;5064877;28;19931;-68
2022/12/21 11:34:05;;;;;;;;;;;;;;;6.67;91.13;97790.13;5070137;28;19928;-68
2022/12/21 11:36:34;;;;;;;;;;;;;;;6.80;91.21;97786.72;5072726;28;19931;-68
2022/12/21 11:39:12;;;;;;;;;;;;;;;6.76;90.72;97788.38;5070649;28;19936;-68
2022/12/21 11:41:42;;;;;;;;;;;;;;;6.78;90.88;97785.41;5069757;28;19931;-68
2022/12/21 11:44:15;;;;;;;;;;;;;;;6.77;90.74;97779.19;5079400;28;19932;-68
2022/12/21 11:46:47;;;;;;;;;;;;;;;6.80;90.38;97773.19;5061539;28;20251;-68
2022/12/21 11:49:30;;;;;;;;;;;;;;;6.76;90.67;97777.56;5065210;28;19928;-66
2022/12/21 11:52:01;;;;;;;;;;;;;;;6.80;91.32;97772.41;5056291;28;20016;-62
2022/12/21 11:54:33;;;;;;;;;;;;;;;6.85;91.26;97761.53;5063182;28;19924;-65
2022/12/21 11:57:02;;;;;;;;;;;;;;;6.93;91.10;97770.91;5063995;28;20263;-62
2022/12/21 11:59:35;;;;;;;;;;;;;;;6.94;91.67;97775.22;5064505;28;19932;-61
2022/12/21 12:02:10;;;;;;;;;;;;;;;7.12;91.87;97773.59;5064628;28;19947;-62
2022/12/21 12:04:42;;;;;;;;;;;;;;;7.10;91.24;97771.19;5059734;28;19932;-62
2022/12/21 12:07:18;;;;;;;;;;;;;;;7.08;91.49;97774.19;5056762;28;19933;-62
2022/12/21 12:10:00;;;;;;;;;;;;;;;7.15;91.01;97765.72;5069881;28;20125;-62
2022/12/21 12:12:30;;;;;;;;;;;;;;;7.19;90.88;97772.16;5061374;28;19932;-61
2022/12/21 12:15:08;;;;;;;;;;;;;;;7.26;91.15;97769.88;5064015;28;19924;-62
2022/12/21 12:17:43;;;;;;;;;;;;;;;7.32;90.72;97766.00;5060026;28;19971;-63
2022/12/21 12:20:13;;;;;;;;;;;;;;;7.33;90.62;97770.31;5072018;28;19924;-61
2022/12/21 12:22:48;;;;;;;;;;;;;;;7.43;90.25;97763.94;5064989;28;19928;-62
2022/12/21 12:28:35;;;;;;;;;;;;;;;7.40;90.03;97769.13;5099074;27;19928;-61
2022/12/21 12:31:09;;;;;;;;;;;;;;;7.38;90.23;97765.94;5098542;27;19931;-62
2022/12/21 12:33:42;;;;;;;;;;;;;;;7.39;90.59;97754.00;5093457;28;19951;-62
2022/12/21 12:36:36;;;;;;;;;;;;;;;7.35;90.44;97757.31;5110991;28;20011;-62
2022/12/21 12:39:30;;;;;;;;;;;;;;;7.33;90.51;97754.09;5103388;28;19924;-61
2022/12/21 12:42:00;;;;;;;;;;;;;;;7.24;90.58;97752.34;5110918;27;19931;-61
2022/12/21 12:44:31;;;;;;;;;;;;;;;7.25;90.80;97757.47;5103854;27;19969;-62
2022/12/21 12:47:02;;;;;;;;;;;;;;;7.33;90.85;97742.47;5096212;27;20470;-61
2022/12/21 12:49:40;;;;;;;;;;;;;;;7.36;90.93;97744.59;5109675;28;19928;-62
2022/12/21 12:52:14;;;;;;;;;;;;;;;7.47;91.07;97745.25;5091687;28;19928;-61
2022/12/21 12:54:44;;;;;;;;;;;;;;;7.48;90.88;97747.66;5100223;28;19993;-61
2022/12/21 12:57:13;;;;;;;;;;;;;;;7.54;91.19;97753.78;5109018;27;19928;-62
2022/12/21 12:59:45;;;;;;;;;;;;;;;7.56;91.08;97751.56;5085745;28;19931;-61
2022/12/21 13:02:14;;;;;;;;;;;;;;;7.62;90.70;97750.41;5105835;28;20226;-61
2022/12/21 13:04:51;;;;;;;;;;;;;;;7.62;90.59;97750.41;5078247;28;20438;-62
2022/12/21 13:07:21;;;;;;;;;;;;;;;7.67;90.83;97763.00;5097955;28;19924;-63
2022/12/21 13:09:53;;;;;;;;;;;;;;;7.61;90.84;97748.78;5102298;28;19924;-61
2022/12/21 13:12:23;;;;;;;;;;;;;;;7.74;90.94;97737.22;5079924;28;20409;-62
2022/12/21 13:14:55;;;;;;;;;;;;;;;7.88;90.82;97732.66;5088405;28;20019;-61
2022/12/21 13:17:27;;;;;;;;;;;;;;;7.95;91.15;97736.88;5113307;28;19923;-61
2022/12/21 13:19:57;;;;;;;;;;;;;;;8.00;90.61;97734.88;5100773;27;20360;-61
2022/12/21 13:22:26;;;;;;;;;;;;;;;8.18;90.23;97725.06;5110272;28;19943;-62
2022/12/21 13:24:55;;;;;;;;;;;;;;;8.27;89.39;97728.69;5081764;28;19943;-62
2022/12/21 13:27:25;;;;;;;;;;;;;;;8.19;89.70;97721.25;5082989;28;19928;-62
2022/12/21 13:29:56;;;;;;;;;;;;;;;8.18;89.43;97719.63;5092432;28;21338;-62
2022/12/21 13:32:28;;;;;;;;;;;;;;;8.15;89.57;97720.25;5074927;28;19924;-61
2022/12/21 13:35:07;;;;;;;;;;;;;;;8.08;89.85;97725.25;5103030;28;19969;-63
2022/12/21 13:37:36;;;;;;;;;;;;;;;8.02;89.54;97726.44;5102994;28;19924;-62
2022/12/21 13:40:05;;;;;;;;;;;;;;;8.01;90.25;97735.66;5100497;28;20956;-62
2022/12/21 13:42:35;;;;;;;;;;;;;;;7.99;90.60;97735.16;5097008;28;19924;-62
2022/12/21 13:45:05;;;;;;;;;;;;;;;8.11;90.66;97735.47;5081502;27;19955;-61
2022/12/21 13:47:33;;;;;;;;;;;;;;;8.17;90.63;97750.50;5102327;27;19924;-61
2022/12/21 13:50:32;;;;;;;;;;;;;;;8.10;90.25;97745.50;5093201;28;20021;-61
2022/12/21 13:53:01;;;;;;;;;;;;;;;8.02;90.47;97737.25;5092436;28;19924;-62